Time;durP1;ratioP1;P1;durP2;ratioP2;P2;SDS_P1;SDS_P2;PMS_P1;PMS_P2;Temp;Humidity;BMP_temperature;BMP_pressure;BME280_temperature;BME280_humidity;BME280_pressure;Samples;Min_cycle;Max_cycle;Signal;HPM_P1;HPM_P2
2021/08/27 00:02:05;;;;;;;;;8.25;6.00;;;;;;;;6304455;22;45322;-72
2021/08/27 00:04:31;;;;;;;;;6.50;5.25;;;;;;;;6304870;22;45413;-72
2021/08/27 00:06:56;;;;;;;;;3.50;3.00;;;;;;;;6304687;22;45238;-72
2021/08/27 00:09:21;;;;;;;;;9.25;5.75;;;;;;;;6304185;22;45384;-72
2021/08/27 00:11:46;;;;;;;;;5.75;4.00;;;;;;;;6304691;22;45174;-71
2021/08/27 00:14:11;;;;;;;;;7.00;5.00;;;;;;;;6304572;22;45429;-71
2021/08/27 00:16:37;;;;;;;;;8.25;7.25;;;;;;;;6304827;22;45388;-72
2021/08/27 00:19:02;;;;;;;;;5.50;3.75;;;;;;;;6305247;22;45238;-71
2021/08/27 00:21:27;;;;;;;;;4.50;4.00;;;;;;;;6305591;22;45170;-74
2021/08/27 00:23:52;;;;;;;;;3.75;3.75;;;;;;;;6304378;22;45174;-71
2021/08/27 00:26:18;;;;;;;;;7.25;4.50;;;;;;;;6304361;22;46268;-71
2021/08/27 00:28:43;;;;;;;;;4.25;4.25;;;;;;;;6304824;22;45587;-72
2021/08/27 00:31:08;;;;;;;;;5.75;5.50;;;;;;;;6304837;22;45261;-72
2021/08/27 00:33:33;;;;;;;;;7.75;6.75;;;;;;;;6304773;22;45372;-73
2021/08/27 00:35:59;;;;;;;;;6.25;6.25;;;;;;;;6304558;22;46097;-72
2021/08/27 00:38:24;;;;;;;;;7.00;4.50;;;;;;;;6304278;22;45324;-71
2021/08/27 00:40:49;;;;;;;;;7.00;4.75;;;;;;;;6304437;22;45388;-71
2021/08/27 00:43:14;;;;;;;;;6.25;5.50;;;;;;;;6304716;22;45326;-71
2021/08/27 00:45:40;;;;;;;;;3.00;3.00;;;;;;;;6304617;22;45606;-71
2021/08/27 00:48:06;;;;;;;;;3.75;3.00;;;;;;;;6303594;22;45305;-72
2021/08/27 00:50:31;;;;;;;;;7.25;5.75;;;;;;;;6304632;22;45474;-71
2021/08/27 00:52:56;;;;;;;;;6.75;5.25;;;;;;;;6303821;22;45312;-71
2021/08/27 00:55:22;;;;;;;;;5.25;4.00;;;;;;;;6304978;22;45326;-71
2021/08/27 00:57:47;;;;;;;;;8.25;3.00;;;;;;;;6277401;22;45345;-70
2021/08/27 01:00:12;;;;;;;;;5.75;5.00;;;;;;;;6305292;22;45420;-71
2021/08/27 01:02:38;;;;;;;;;8.75;6.50;;;;;;;;6304570;22;45279;-70
2021/08/27 01:05:04;;;;;;;;;9.75;7.75;;;;;;;;6303861;22;45917;-70
2021/08/27 01:07:30;;;;;;;;;10.25;7.50;;;;;;;;6303737;22;45264;-70
2021/08/27 01:10:01;;;;;;;;;7.75;6.50;;;;;;;;6305154;22;45173;-70
2021/08/27 01:12:45;;;;;;;;;7.00;5.75;;;;;;;;6304529;22;45464;-71
2021/08/27 01:15:14;;;;;;;;;8.25;6.00;;;;;;;;6303863;22;46992;-70
2021/08/27 01:17:45;;;;;;;;;5.25;5.00;;;;;;;;6304075;22;45401;-70
2021/08/27 01:20:27;;;;;;;;;7.75;6.00;;;;;;;;6276308;22;45341;-71
2021/08/27 01:23:00;;;;;;;;;4.50;4.50;;;;;;;;6302915;22;45238;-71
2021/08/27 01:25:26;;;;;;;;;5.75;5.75;;;;;;;;6304485;22;46211;-71
2021/08/27 01:27:52;;;;;;;;;8.25;4.75;;;;;;;;6303967;22;45233;-71
2021/08/27 01:30:22;;;;;;;;;7.00;6.75;;;;;;;;6304533;22;45185;-71
2021/08/27 01:32:57;;;;;;;;;4.75;4.75;;;;;;;;6304625;22;45234;-71
2021/08/27 01:35:24;;;;;;;;;5.00;3.25;;;;;;;;6304300;22;45300;-71
2021/08/27 01:37:50;;;;;;;;;6.00;6.00;;;;;;;;6304095;22;45309;-72
2021/08/27 01:40:22;;;;;;;;;8.50;5.75;;;;;;;;6304251;22;45259;-70
2021/08/27 01:42:48;;;;;;;;;8.00;5.75;;;;;;;;6304254;22;45594;-72
2021/08/27 01:45:14;;;;;;;;;12.25;10.00;;;;;;;;6304005;22;45443;-71
2021/08/27 01:47:40;;;;;;;;;5.25;5.25;;;;;;;;6303383;22;45373;-71
2021/08/27 01:50:05;;;;;;;;;8.75;6.75;;;;;;;;6304149;22;45260;-71
2021/08/27 01:52:31;;;;;;;;;9.75;7.25;;;;;;;;6302918;22;45181;-71
2021/08/27 01:54:57;;;;;;;;;7.75;6.00;;;;;;;;6304166;22;45303;-71
2021/08/27 01:57:24;;;;;;;;;4.50;4.50;;;;;;;;6304248;22;45307;-71
2021/08/27 01:59:49;;;;;;;;;8.25;7.00;;;;;;;;6304194;22;45320;-70
2021/08/27 02:02:15;;;;;;;;;6.25;4.00;;;;;;;;6303993;22;45451;-69
2021/08/27 02:04:43;;;;;;;;;9.50;7.50;;;;;;;;6303873;22;46315;-69
2021/08/27 02:07:09;;;;;;;;;9.25;7.75;;;;;;;;6303604;22;45228;-70
2021/08/27 02:09:34;;;;;;;;;6.75;6.75;;;;;;;;6304590;22;45286;-70
2021/08/27 02:12:00;;;;;;;;;7.00;5.75;;;;;;;;6304188;22;45286;-71
2021/08/27 02:14:26;;;;;;;;;7.75;7.50;;;;;;;;6303984;22;46105;-70
2021/08/27 02:16:51;;;;;;;;;8.00;5.25;;;;;;;;6304324;22;45266;-69
2021/08/27 02:19:17;;;;;;;;;10.75;7.25;;;;;;;;6304357;22;45213;-69
2021/08/27 02:21:46;;;;;;;;;5.25;5.25;;;;;;;;6305201;22;45348;-69
2021/08/27 02:24:14;;;;;;;;;11.00;5.75;;;;;;;;6303695;22;45315;-70
2021/08/27 02:26:41;;;;;;;;;5.00;3.00;;;;;;;;6303831;22;45395;-70
2021/08/27 02:29:06;;;;;;;;;7.25;6.50;;;;;;;;6303838;22;45312;-69
2021/08/27 02:31:32;;;;;;;;;8.00;5.25;;;;;;;;6303721;22;45404;-68
2021/08/27 02:33:58;;;;;;;;;9.75;6.50;;;;;;;;6302856;22;47587;-69
2021/08/27 02:36:24;;;;;;;;;12.75;8.00;;;;;;;;6303321;22;45305;-69
2021/08/27 02:38:50;;;;;;;;;10.50;6.00;;;;;;;;6303621;22;45258;-69
2021/08/27 02:41:15;;;;;;;;;7.25;5.00;;;;;;;;6303627;22;45599;-69
2021/08/27 02:43:41;;;;;;;;;8.75;7.50;;;;;;;;6303078;22;47181;-69
2021/08/27 02:46:06;;;;;;;;;11.25;7.50;;;;;;;;6303687;22;45355;-68
2021/08/27 02:48:31;;;;;;;;;4.00;2.50;;;;;;;;6303824;22;45380;-68
2021/08/27 02:51:10;;;;;;;;;10.00;7.75;;;;;;;;6275895;22;45502;-68
2021/08/27 02:53:37;;;;;;;;;8.25;6.75;;;;;;;;6303132;22;45946;-70
2021/08/27 02:56:03;;;;;;;;;10.00;7.00;;;;;;;;6303028;22;45277;-70
2021/08/27 02:58:32;;;;;;;;;10.75;8.50;;;;;;;;6303648;22;45309;-70
2021/08/27 03:01:00;;;;;;;;;9.00;8.75;;;;;;;;6303308;22;45291;-69
2021/08/27 03:03:27;;;;;;;;;6.00;6.00;;;;;;;;6303090;22;45921;-70
2021/08/27 03:06:24;;;;;;;;;11.50;7.75;;;;;;;;6303518;22;45349;-70
2021/08/27 03:08:54;;;;;;;;;4.00;4.00;;;;;;;;6177295;23;45451;-70
2021/08/27 03:11:21;;;;;;;;;7.25;6.25;;;;;;;;6177876;23;45360;-70
2021/08/27 03:13:54;;;;;;;;;8.75;6.25;;;;;;;;6177314;23;46427;-70
2021/08/27 03:16:19;;;;;;;;;7.25;3.50;;;;;;;;6151993;23;45318;-70
2021/08/27 03:18:56;;;;;;;;;7.50;4.25;;;;;;;;6177266;23;45630;-70
2021/08/27 03:21:36;;;;;;;;;9.75;7.00;;;;;;;;6152221;23;45196;-70
2021/08/27 03:24:06;;;;;;;;;7.75;6.75;;;;;;;;6176568;23;46933;-70
2021/08/27 03:26:32;;;;;;;;;8.25;7.75;;;;;;;;6177933;23;45280;-70
2021/08/27 03:28:59;;;;;;;;;5.25;4.50;;;;;;;;6179421;23;45247;-69
2021/08/27 03:31:25;;;;;;;;;7.50;6.75;;;;;;;;6154276;23;45470;-69
2021/08/27 03:33:51;;;;;;;;;10.25;5.50;;;;;;;;6178587;23;46308;-70
2021/08/27 03:36:17;;;;;;;;;10.00;7.50;;;;;;;;6178699;23;45428;-70
2021/08/27 03:38:42;;;;;;;;;10.00;7.50;;;;;;;;6179305;23;45374;-70
2021/08/27 03:41:08;;;;;;;;;15.00;9.00;;;;;;;;6178811;23;45461;-70
2021/08/27 03:43:33;;;;;;;;;6.00;5.25;;;;;;;;6195269;22;47012;-70
2021/08/27 03:45:59;;;;;;;;;8.75;8.00;;;;;;;;6304583;22;45320;-70
2021/08/27 03:48:24;;;;;;;;;8.25;8.00;;;;;;;;6304592;22;45449;-69
2021/08/27 03:50:51;;;;;;;;;10.75;8.25;;;;;;;;6304754;22;45281;-69
2021/08/27 03:53:17;;;;;;;;;8.00;7.75;;;;;;;;6304012;22;47086;-70
2021/08/27 03:55:43;;;;;;;;;9.75;7.50;;;;;;;;6304232;22;45460;-69
2021/08/27 03:58:11;;;;;;;;;8.50;8.50;;;;;;;;6304111;22;45174;-69
2021/08/27 04:00:37;;;;;;;;;11.00;9.00;;;;;;;;6304055;22;45414;-71
2021/08/27 04:03:02;;;;;;;;;21.75;16.25;;;;;;;;6303920;22;46170;-70
2021/08/27 04:05:27;;;;;;;;;14.00;6.75;;;;;;;;6275666;22;45269;-70
2021/08/27 04:07:52;;;;;;;;;17.00;13.50;;;;;;;;6304136;22;45292;-70
2021/08/27 04:10:19;;;;;;;;;9.75;8.00;;;;;;;;6275926;22;45304;-70
2021/08/27 04:12:44;;;;;;;;;4.50;4.25;;;;;;;;6303785;22;45335;-71
2021/08/27 04:15:11;;;;;;;;;12.75;9.00;;;;;;;;6303457;22;45301;-71
2021/08/27 04:17:37;;;;;;;;;12.50;7.50;;;;;;;;6303340;22;45240;-71
2021/08/27 04:20:04;;;;;;;;;12.00;9.00;;;;;;;;6304072;22;45387;-71
2021/08/27 04:22:29;;;;;;;;;11.50;9.75;;;;;;;;6303973;22;45361;-71
2021/08/27 04:24:54;;;;;;;;;15.25;11.25;;;;;;;;6303790;22;45240;-70
2021/08/27 04:27:19;;;;;;;;;14.25;11.00;;;;;;;;6303765;22;45261;-70
2021/08/27 04:29:45;;;;;;;;;8.00;7.50;;;;;;;;6304277;22;45431;-71
2021/08/27 04:32:10;;;;;;;;;13.50;13.50;;;;;;;;6303312;22;46476;-71
2021/08/27 04:34:35;;;;;;;;;8.50;7.00;;;;;;;;6304540;22;45272;-71
2021/08/27 04:37:00;;;;;;;;;10.25;8.00;;;;;;;;6304249;22;45359;-71
2021/08/27 04:39:25;;;;;;;;;9.00;8.75;;;;;;;;6303241;22;45172;-70
2021/08/27 04:41:51;;;;;;;;;13.00;10.25;;;;;;;;6302877;22;45927;-70
2021/08/27 04:44:16;;;;;;;;;10.25;8.00;;;;;;;;6302704;22;45257;-71
2021/08/27 04:46:41;;;;;;;;;14.25;12.00;;;;;;;;6276107;22;45296;-70
2021/08/27 04:49:06;;;;;;;;;11.25;9.00;;;;;;;;6304259;22;45242;-70
2021/08/27 04:51:31;;;;;;;;;11.50;10.00;;;;;;;;6303844;22;46145;-70
2021/08/27 04:53:57;;;;;;;;;12.25;9.00;;;;;;;;6303867;22;45382;-70
2021/08/27 04:56:22;;;;;;;;;14.00;12.00;;;;;;;;6303335;22;45302;-70
2021/08/27 04:58:47;;;;;;;;;11.75;11.75;;;;;;;;6302547;22;45469;-69
2021/08/27 05:01:13;;;;;;;;;12.50;10.25;;;;;;;;6303689;22;45975;-71
2021/08/27 05:03:38;;;;;;;;;13.25;8.50;;;;;;;;6303625;22;45230;-70
2021/08/27 05:06:03;;;;;;;;;17.50;11.00;;;;;;;;6302491;22;45448;-69
2021/08/27 05:08:29;;;;;;;;;11.25;8.00;;;;;;;;6302593;22;45445;-68
2021/08/27 05:10:54;;;;;;;;;15.50;12.75;;;;;;;;6302587;22;46888;-68
2021/08/27 05:13:19;;;;;;;;;9.50;9.50;;;;;;;;6302603;22;45383;-68
2021/08/27 05:15:44;;;;;;;;;11.00;9.25;;;;;;;;6303539;22;45292;-68
2021/08/27 05:18:10;;;;;;;;;11.00;9.50;;;;;;;;6302448;22;45214;-70
2021/08/27 05:20:35;;;;;;;;;10.75;9.00;;;;;;;;6302072;22;46342;-69
2021/08/27 05:23:01;;;;;;;;;10.25;8.00;;;;;;;;6303318;22;45321;-71
2021/08/27 05:25:27;;;;;;;;;8.00;6.00;;;;;;;;6303394;22;45276;-71
2021/08/27 05:27:52;;;;;;;;;13.25;10.75;;;;;;;;6302587;22;45374;-71
2021/08/27 05:30:20;;;;;;;;;14.50;8.75;;;;;;;;6302929;22;46743;-72
2021/08/27 05:32:46;;;;;;;;;11.50;10.25;;;;;;;;6303116;22;45396;-73
2021/08/27 05:35:12;;;;;;;;;15.25;12.50;;;;;;;;6302903;22;45757;-71
2021/08/27 05:37:37;;;;;;;;;9.25;8.25;;;;;;;;6303048;22;45326;-71
2021/08/27 05:40:03;;;;;;;;;10.00;8.25;;;;;;;;6302759;22;47290;-71
2021/08/27 05:42:29;;;;;;;;;17.00;14.25;;;;;;;;6302452;22;45293;-69
2021/08/27 05:44:54;;;;;;;;;13.25;10.25;;;;;;;;6302571;22;45304;-71
2021/08/27 05:47:19;;;;;;;;;7.50;6.75;;;;;;;;6302742;22;45376;-71
2021/08/27 05:49:44;;;;;;;;;17.00;13.25;;;;;;;;6302402;22;46773;-71
2021/08/27 05:52:09;;;;;;;;;9.75;8.00;;;;;;;;6303742;22;45279;-72
2021/08/27 05:54:35;;;;;;;;;11.75;11.75;;;;;;;;6303277;22;45334;-72
2021/08/27 05:57:00;;;;;;;;;11.00;8.75;;;;;;;;6302511;22;45392;-71
2021/08/27 05:59:25;;;;;;;;;11.50;8.00;;;;;;;;6302680;22;46090;-72
2021/08/27 06:01:50;;;;;;;;;10.00;9.75;;;;;;;;6274663;22;45305;-71
2021/08/27 06:04:16;;;;;;;;;13.00;13.00;;;;;;;;6303211;22;45248;-72
2021/08/27 06:06:41;;;;;;;;;19.75;15.50;;;;;;;;6302858;22;45262;-72
2021/08/27 06:09:06;;;;;;;;;13.00;9.25;;;;;;;;6302511;22;45943;-72
2021/08/27 06:11:35;;;;;;;;;24.25;21.75;;;;;;;;6301645;22;45162;-72
2021/08/27 06:14:00;;;;;;;;;19.75;17.75;;;;;;;;6302674;22;45229;-72
2021/08/27 06:16:25;;;;;;;;;14.50;10.25;;;;;;;;6303028;22;45182;-72
2021/08/27 06:18:50;;;;;;;;;16.00;14.25;;;;;;;;6301801;22;47110;-71
2021/08/27 06:21:16;;;;;;;;;13.75;11.25;;;;;;;;6301882;22;45361;-71
2021/08/27 06:23:41;;;;;;;;;13.50;12.50;;;;;;;;6302774;22;45285;-71
2021/08/27 06:26:06;;;;;;;;;15.25;11.75;;;;;;;;6301348;22;45391;-70
2021/08/27 06:28:32;;;;;;;;;18.50;15.00;;;;;;;;6301341;22;46695;-72
2021/08/27 06:30:58;;;;;;;;;17.50;15.25;;;;;;;;6301676;22;45348;-70
2021/08/27 06:33:23;;;;;;;;;18.75;14.25;;;;;;;;6301838;22;45267;-70
2021/08/27 06:35:48;;;;;;;;;14.25;12.75;;;;;;;;6274585;22;45465;-70
2021/08/27 06:38:23;;;;;;;;;16.25;14.50;;;;;;;;6302049;22;47033;-70
2021/08/27 06:40:58;;;;;;;;;9.00;7.50;;;;;;;;6301749;22;45313;-69
2021/08/27 06:43:27;;;;;;;;;13.50;12.00;;;;;;;;6302543;22;45315;-69
2021/08/27 06:45:52;;;;;;;;;19.00;13.50;;;;;;;;6302331;22;45388;-70
2021/08/27 06:48:17;;;;;;;;;13.75;10.50;;;;;;;;6302255;22;45990;-69
2021/08/27 06:50:43;;;;;;;;;13.75;13.75;;;;;;;;6302296;22;45553;-69
2021/08/27 06:53:08;;;;;;;;;19.00;15.25;;;;;;;;6301889;22;45227;-70
2021/08/27 06:55:34;;;;;;;;;19.50;15.00;;;;;;;;6301809;22;45428;-69
2021/08/27 06:58:00;;;;;;;;;20.75;17.00;;;;;;;;6301690;22;45386;-69
2021/08/27 07:00:26;;;;;;;;;34.25;29.25;;;;;;;;6301707;22;45273;-69
2021/08/27 07:02:51;;;;;;;;;11.75;10.50;;;;;;;;6303612;22;45355;-70
2021/08/27 07:05:16;;;;;;;;;15.75;13.50;;;;;;;;6302730;22;45461;-70
2021/08/27 07:07:42;;;;;;;;;17.25;14.25;;;;;;;;6302889;22;45371;-70
2021/08/27 07:10:07;;;;;;;;;22.00;16.75;;;;;;;;6303106;22;45456;-70
2021/08/27 07:12:32;;;;;;;;;14.50;11.50;;;;;;;;6303710;22;45308;-70
2021/08/27 07:14:57;;;;;;;;;19.50;17.00;;;;;;;;6303267;22;45201;-70
2021/08/27 07:17:23;;;;;;;;;14.00;12.75;;;;;;;;6302511;22;46911;-70
2021/08/27 07:19:48;;;;;;;;;20.50;16.50;;;;;;;;6303534;22;45239;-69
2021/08/27 07:22:13;;;;;;;;;15.25;12.50;;;;;;;;6303200;22;45256;-69
2021/08/27 07:24:39;;;;;;;;;21.00;15.50;;;;;;;;6302821;22;45205;-70
2021/08/27 07:27:04;;;;;;;;;15.75;10.75;;;;;;;;6302758;22;45289;-70
2021/08/27 07:29:29;;;;;;;;;14.75;14.50;;;;;;;;6302284;22;45232;-70
2021/08/27 07:31:54;;;;;;;;;18.75;14.50;;;;;;;;6303874;22;45256;-70
2021/08/27 07:34:20;;;;;;;;;15.75;13.25;;;;;;;;6303479;22;45426;-69
2021/08/27 07:36:45;;;;;;;;;17.50;13.25;;;;;;;;6302734;22;46706;-70
2021/08/27 07:39:10;;;;;;;;;14.50;13.25;;;;;;;;6302535;22;45255;-70
2021/08/27 07:41:35;;;;;;;;;14.25;14.25;;;;;;;;6302945;22;45265;-70
2021/08/27 07:44:01;;;;;;;;;15.50;13.75;;;;;;;;6302338;22;45192;-70
2021/08/27 07:46:27;;;;;;;;;20.50;13.75;;;;;;;;6302762;22;46108;-69
2021/08/27 07:48:52;;;;;;;;;13.50;11.00;;;;;;;;6302964;22;45222;-69
2021/08/27 07:51:17;;;;;;;;;10.75;9.00;;;;;;;;6303668;22;45121;-69
2021/08/27 07:53:43;;;;;;;;;15.75;10.75;;;;;;;;6303344;22;45360;-71
2021/08/27 07:56:08;;;;;;;;;19.25;15.25;;;;;;;;6302802;22;46005;-71
2021/08/27 07:58:33;;;;;;;;;12.25;8.75;;;;;;;;6302319;22;45231;-70
2021/08/27 08:00:58;;;;;;;;;10.50;8.75;;;;;;;;6302986;22;45123;-71
2021/08/27 08:03:23;;;;;;;;;10.50;9.25;;;;;;;;6303014;22;45344;-69
2021/08/27 08:05:49;;;;;;;;;13.00;9.75;;;;;;;;6303138;22;45862;-71
2021/08/27 08:08:14;;;;;;;;;9.75;9.75;;;;;;;;6301565;22;45296;-71
2021/08/27 08:10:39;;;;;;;;;13.25;11.75;;;;;;;;6303058;22;45179;-70
2021/08/27 08:13:04;;;;;;;;;8.75;7.75;;;;;;;;6274772;22;45418;-71
2021/08/27 08:15:29;;;;;;;;;11.00;8.75;;;;;;;;6303492;22;46161;-70
2021/08/27 08:17:55;;;;;;;;;9.00;9.00;;;;;;;;6302914;22;45213;-71
2021/08/27 08:20:20;;;;;;;;;8.00;8.00;;;;;;;;6274933;22;45256;-70
2021/08/27 08:22:45;;;;;;;;;10.75;10.25;;;;;;;;6302625;22;45245;-70
2021/08/27 08:25:10;;;;;;;;;6.00;6.00;;;;;;;;6303480;22;46630;-70
2021/08/27 08:27:36;;;;;;;;;11.50;7.50;;;;;;;;6303175;22;45187;-70
2021/08/27 08:30:02;;;;;;;;;10.00;7.50;;;;;;;;6302705;22;45221;-71
2021/08/27 08:32:27;;;;;;;;;7.25;7.25;;;;;;;;6303428;22;45336;-70
2021/08/27 08:34:53;;;;;;;;;8.50;7.50;;;;;;;;6302908;22;45923;-70
2021/08/27 08:37:18;;;;;;;;;12.75;8.50;;;;;;;;6302227;22;45312;-71
2021/08/27 08:39:43;;;;;;;;;12.00;9.50;;;;;;;;6303527;22;45291;-71
2021/08/27 08:42:09;;;;;;;;;10.00;7.25;;;;;;;;6302572;22;45383;-71
2021/08/27 08:44:34;;;;;;;;;8.50;7.25;;;;;;;;6302716;22;47202;-71
2021/08/27 08:47:00;;;;;;;;;9.25;8.25;;;;;;;;6302813;22;45348;-71
2021/08/27 08:49:27;;;;;;;;;5.50;5.50;;;;;;;;6302632;22;45284;-70
2021/08/27 08:51:52;;;;;;;;;5.75;4.75;;;;;;;;6301744;22;45285;-70
2021/08/27 08:54:18;;;;;;;;;5.00;5.00;;;;;;;;6302674;22;45280;-70
2021/08/27 08:56:43;;;;;;;;;5.25;4.00;;;;;;;;6274738;22;45231;-70
2021/08/27 08:59:09;;;;;;;;;7.50;7.50;;;;;;;;6302490;22;45202;-69
2021/08/27 09:01:34;;;;;;;;;6.75;5.50;;;;;;;;6302139;22;45442;-70
2021/08/27 09:03:59;;;;;;;;;4.50;3.00;;;;;;;;6302375;22;46065;-69
2021/08/27 09:06:25;;;;;;;;;6.25;5.50;;;;;;;;6302146;22;45403;-70
2021/08/27 09:08:51;;;;;;;;;6.00;4.75;;;;;;;;6302622;22;45300;-69
2021/08/27 09:11:19;;;;;;;;;6.25;4.75;;;;;;;;6302196;22;45331;-69
2021/08/27 09:13:45;;;;;;;;;7.50;5.50;;;;;;;;6274282;22;47012;-70
2021/08/27 09:16:10;;;;;;;;;8.50;6.25;;;;;;;;6273806;22;45288;-70
2021/08/27 09:18:37;;;;;;;;;9.00;7.75;;;;;;;;6302780;22;45193;-69
2021/08/27 09:21:22;;;;;;;;;6.25;6.25;;;;;;;;6302824;22;45164;-72
2021/08/27 09:23:47;;;;;;;;;7.25;7.25;;;;;;;;6302151;22;46197;-71
2021/08/27 09:26:31;;;;;;;;;8.25;8.25;;;;;;;;6302778;22;45225;-71
2021/08/27 09:28:56;;;;;;;;;3.75;3.75;;;;;;;;6302891;22;45281;-69
2021/08/27 09:31:30;;;;;;;;;7.50;6.50;;;;;;;;6302804;22;45211;-69
2021/08/27 09:33:56;;;;;;;;;7.25;6.25;;;;;;;;6303126;22;46412;-70
2021/08/27 09:36:22;;;;;;;;;5.75;5.25;;;;;;;;6301500;22;45286;-70
2021/08/27 09:38:58;;;;;;;;;7.75;6.75;;;;;;;;6302330;22;45270;-71
2021/08/27 09:41:24;;;;;;;;;9.50;8.75;;;;;;;;6303071;22;45365;-70
2021/08/27 09:43:51;;;;;;;;;6.33;4.33;;;;;;;;6302324;22;46186;-69
2021/08/27 09:46:36;;;;;;;;;5.25;4.00;;;;;;;;6302475;22;45329;-72
2021/08/27 09:49:24;;;;;;;;;4.67;4.67;;;;;;;;6302368;22;45281;-71
2021/08/27 09:51:49;;;;;;;;;5.75;5.00;;;;;;;;6301486;22;45276;-70
2021/08/27 09:54:27;;;;;;;;;5.33;5.33;;;;;;;;6301879;22;46418;-71
2021/08/27 09:56:58;;;;;;;;;2.00;2.00;;;;;;;;6301937;22;45246;-71
2021/08/27 09:59:38;;;;;;;;;2.00;2.00;;;;;;;;6273845;22;45511;-70
2021/08/27 10:02:04;;;;;;;;;4.67;4.67;;;;;;;;6302113;22;45395;-71
2021/08/27 10:04:30;;;;;;;;;4.00;2.00;;;;;;;;6301953;22;46184;-71
2021/08/27 10:06:55;;;;;;;;;9.25;9.25;;;;;;;;6301629;22;45531;-70
2021/08/27 10:09:21;;;;;;;;;1.33;1.33;;;;;;;;6302550;22;45124;-70
2021/08/27 10:11:48;;;;;;;;;3.00;2.67;;;;;;;;6302198;22;45306;-71
2021/08/27 10:14:14;;;;;;;;;10.75;9.00;;;;;;;;6301594;22;46872;-72
2021/08/27 10:16:41;;;;;;;;;1.67;1.67;;;;;;;;6302077;22;45280;-70
2021/08/27 10:19:06;;;;;;;;;5.33;3.33;;;;;;;;6301720;22;45288;-70
2021/08/27 10:21:32;;;;;;;;;2.00;2.00;;;;;;;;6302473;22;45380;-69
2021/08/27 10:23:58;;;;;;;;;2.00;2.00;;;;;;;;6302029;22;45671;-69
2021/08/27 10:26:25;;;;;;;;;4.67;2.00;;;;;;;;6302217;22;45321;-71
2021/08/27 10:28:50;;;;;;;;;2.33;1.00;;;;;;;;6301502;22;45345;-69
2021/08/27 10:31:16;;;;;;;;;1.67;1.00;;;;;;;;6302562;22;45216;-71
2021/08/27 10:33:42;;;;;;;;;1.33;1.33;;;;;;;;6302123;22;46065;-72
2021/08/27 10:36:07;;;;;;;;;2.33;1.33;;;;;;;;6301715;22;45312;-70
2021/08/27 10:38:39;;;;;;;;;2.67;1.67;;;;;;;;6303915;22;45340;-71
2021/08/27 10:41:15;;;;;;;;;2.00;2.00;;;;;;;;6303561;22;45175;-70
2021/08/27 10:43:51;;;;;;;;;5.00;5.00;;;;;;;;6303573;22;46257;-70
2021/08/27 10:46:16;;;;;;;;;1.67;1.67;;;;;;;;6303037;22;45111;-71
2021/08/27 10:48:53;;;;;;;;;2.00;2.00;;;;;;;;6302670;22;45264;-70
2021/08/27 10:51:50;;;;;;;;;1.33;1.33;;;;;;;;6303658;22;45427;-70
2021/08/27 10:54:17;;;;;;;;;2.00;2.00;;;;;;;;6176857;23;46196;-70
2021/08/27 10:56:45;;;;;;;;;2.00;2.00;;;;;;;;6177036;23;45203;-71
2021/08/27 10:59:11;;;;;;;;;3.00;3.00;;;;;;;;6152634;23;45309;-71
2021/08/27 11:01:38;;;;;;;;;5.00;3.00;;;;;;;;6176790;23;45268;-71
2021/08/27 11:04:13;;;;;;;;;3.00;1.00;;;;;;;;6176891;23;46116;-72
2021/08/27 11:06:47;;;;;;;;;9.33;7.00;;;;;;;;6176742;23;45356;-70
2021/08/27 11:09:13;;;;;;;;;2.33;2.33;;;;;;;;6176902;23;45333;-69
2021/08/27 11:11:38;;;;;;;;;3.00;2.00;;;;;;;;6177415;23;45330;-71
2021/08/27 11:14:21;;;;;;;;;5.00;4.00;;;;;;;;6176133;23;46182;-72
2021/08/27 11:17:13;;;;;;;;;1.00;1.00;;;;;;;;6176876;23;45318;-70
2021/08/27 11:19:44;;;;;;;;;4.00;3.00;;;;;;;;6169160;23;45377;-70
2021/08/27 11:22:09;;;;;;;;;2.33;2.33;;;;;;;;6177033;23;45428;-70
2021/08/27 11:24:34;;;;;;;;;5.00;3.00;;;;;;;;6176685;23;46385;-70
2021/08/27 11:27:00;;;;;;;;;1.00;1.00;;;;;;;;6176706;23;45346;-69
2021/08/27 11:29:30;;;;;;;;;3.33;3.33;;;;;;;;6177280;22;45283;-70
2021/08/27 11:31:56;;;;;;;;;2.33;1.00;;;;;;;;6302161;22;45283;-69
2021/08/27 11:34:25;;;;;;;;;1.00;1.00;;;;;;;;6302925;22;45910;-70
2021/08/27 11:36:51;;;;;;;;;1.33;1.33;;;;;;;;6302352;22;45289;-71
2021/08/27 11:39:16;;;;;;;;;1.00;1.00;;;;;;;;6302830;22;45265;-70
2021/08/27 11:41:42;;;;;;;;;9.00;9.00;;;;;;;;6302471;22;45292;-70
2021/08/27 11:44:08;;;;;;;;;1.00;1.00;;;;;;;;6303032;22;45972;-70
2021/08/27 11:46:34;;;;;;;;;2.00;2.00;;;;;;;;6302479;22;45270;-70
2021/08/27 11:49:04;;;;;;;;;4.67;3.00;;;;;;;;6303311;22;45219;-71
2021/08/27 11:51:30;;;;;;;;;7.33;5.33;;;;;;;;6302941;22;45407;-70
2021/08/27 11:53:55;;;;;;;;;4.00;3.00;;;;;;;;6302354;22;45259;-69
2021/08/27 11:56:24;;;;;;;;;1.00;1.00;;;;;;;;6302703;22;45287;-70
2021/08/27 11:58:49;;;;;;;;;1.00;1.00;;;;;;;;6302994;22;45259;-70
2021/08/27 12:01:28;;;;;;;;;2.00;1.67;;;;;;;;6302301;22;45390;-71
2021/08/27 12:03:53;;;;;;;;;3.67;3.00;;;;;;;;6302714;22;46030;-69
2021/08/27 12:06:19;;;;;;;;;1.00;1.00;;;;;;;;6302249;22;45302;-68
2021/08/27 12:08:45;;;;;;;;;2.33;1.33;;;;;;;;6302750;22;45336;-69
2021/08/27 12:11:11;;;;;;;;;1.33;1.33;;;;;;;;6302197;22;45397;-69
2021/08/27 12:13:48;;;;;;;;;1.33;1.33;;;;;;;;6302948;22;46096;-69
2021/08/27 12:16:13;;;;;;;;;3.33;3.33;;;;;;;;6274924;22;45219;-69
2021/08/27 12:18:40;;;;;;;;;0.67;0.67;;;;;;;;6303382;22;45221;-68
2021/08/27 12:21:06;;;;;;;;;4.00;3.00;;;;;;;;6303064;22;45502;-69
2021/08/27 12:23:33;;;;;;;;;1.67;1.67;;;;;;;;6302339;22;46221;-68
2021/08/27 12:26:08;;;;;;;;;2.67;2.00;;;;;;;;6302753;22;45305;-69
2021/08/27 12:28:35;;;;;;;;;1.00;1.00;;;;;;;;6302434;22;45325;-69
2021/08/27 12:31:00;;;;;;;;;2.00;2.00;;;;;;;;6302934;22;45388;-68
2021/08/27 12:33:31;;;;;;;;;6.00;2.00;;;;;;;;6300139;22;46123;-72
2021/08/27 12:35:56;;;;;;;;;1.33;1.00;;;;;;;;6295248;22;45243;-71
2021/08/27 12:38:22;;;;;;;;;1.00;1.00;;;;;;;;6302201;22;45280;-72
2021/08/27 12:40:48;;;;;;;;;0.67;0.67;;;;;;;;6301967;22;45203;-69
2021/08/27 12:43:15;;;;;;;;;2.00;2.00;;;;;;;;6301417;22;46245;-70
2021/08/27 12:45:48;;;;;;;;;1.67;1.67;;;;;;;;6302053;22;45359;-72
2021/08/27 12:48:24;;;;;;;;;2.67;1.00;;;;;;;;6273951;22;45319;-69
2021/08/27 12:50:52;;;;;;;;;1.00;1.00;;;;;;;;6302070;22;45476;-69
2021/08/27 12:53:25;;;;;;;;;2.67;2.67;;;;;;;;6301302;22;45677;-69
2021/08/27 12:55:50;;;;;;;;;1.67;1.67;;;;;;;;6301052;22;45349;-69
2021/08/27 12:58:28;;;;;;;;;2.00;2.00;;;;;;;;6300603;22;45376;-71
2021/08/27 13:01:10;;;;;;;;;2.33;1.00;;;;;;;;6301862;22;45311;-71
2021/08/27 13:03:39;;;;;;;;;1.33;1.00;;;;;;;;6301122;22;46125;-68
2021/08/27 13:06:05;;;;;;;;;1.67;1.67;;;;;;;;6301783;22;45342;-71
2021/08/27 13:08:30;;;;;;;;;1.67;1.67;;;;;;;;6301599;22;45286;-73
2021/08/27 13:10:59;;;;;;;;;0.00;0.00;;;;;;;;6302376;22;45502;-73
2021/08/27 13:13:25;;;;;;;;;3.33;2.00;;;;;;;;6300880;22;47294;-74
2021/08/27 13:16:04;;;;;;;;;2.00;2.00;;;;;;;;6301548;22;45242;-73
2021/08/27 13:18:37;;;;;;;;;2.00;2.00;;;;;;;;6302286;22;45461;-76
2021/08/27 13:21:02;;;;;;;;;2.33;1.67;;;;;;;;6301770;22;45280;-74
2021/08/27 13:23:27;;;;;;;;;0.00;0.00;;;;;;;;6302077;22;45242;-72
2021/08/27 13:25:54;;;;;;;;;2.67;0.67;;;;;;;;6301176;22;45225;-70
2021/08/27 13:28:20;;;;;;;;;3.00;2.33;;;;;;;;6301280;22;45284;-72
2021/08/27 13:30:45;;;;;;;;;3.33;2.00;;;;;;;;6302182;22;45132;-70
2021/08/27 13:33:10;;;;;;;;;2.33;2.00;;;;;;;;6301777;22;45528;-70
2021/08/27 13:35:35;;;;;;;;;4.33;1.67;;;;;;;;6302302;22;45234;-69
2021/08/27 13:38:01;;;;;;;;;2.00;2.00;;;;;;;;6302341;22;45351;-69
2021/08/27 13:40:26;;;;;;;;;1.33;1.00;;;;;;;;6303173;22;45197;-70
2021/08/27 13:42:51;;;;;;;;;1.00;1.00;;;;;;;;6302460;22;45162;-69
2021/08/27 13:45:16;;;;;;;;;1.00;1.00;;;;;;;;6302523;22;45619;-69
2021/08/27 13:47:42;;;;;;;;;2.67;2.67;;;;;;;;6302588;22;45288;-71
2021/08/27 13:50:11;;;;;;;;;1.00;1.00;;;;;;;;6302230;22;45349;-70
2021/08/27 13:52:38;;;;;;;;;0.33;0.33;;;;;;;;6302209;22;47070;-71
2021/08/27 13:55:03;;;;;;;;;1.00;1.00;;;;;;;;6302791;22;45253;-72
2021/08/27 13:57:28;;;;;;;;;2.00;1.00;;;;;;;;6302580;22;45642;-71
2021/08/27 13:59:53;;;;;;;;;8.33;8.33;;;;;;;;6301989;22;45387;-71
2021/08/27 14:02:19;;;;;;;;;2.33;2.33;;;;;;;;6301974;22;45996;-71
2021/08/27 14:04:44;;;;;;;;;2.33;2.33;;;;;;;;6302340;22;45389;-70
2021/08/27 14:07:10;;;;;;;;;2.33;2.33;;;;;;;;6302457;22;45250;-69
2021/08/27 14:09:35;;;;;;;;;2.67;2.67;;;;;;;;6302071;22;45198;-72
2021/08/27 14:12:00;;;;;;;;;1.33;0.33;;;;;;;;6301412;22;46483;-71
2021/08/27 14:14:25;;;;;;;;;3.33;2.67;;;;;;;;6302726;22;45277;-71
2021/08/27 14:16:50;;;;;;;;;3.00;1.00;;;;;;;;6302053;22;45223;-71
2021/08/27 14:19:16;;;;;;;;;1.00;1.00;;;;;;;;6301805;22;45288;-71
2021/08/27 14:21:41;;;;;;;;;4.00;4.00;;;;;;;;6302040;22;46092;-71
2021/08/27 14:24:06;;;;;;;;;0.67;0.67;;;;;;;;6301664;22;45483;-71
2021/08/27 14:26:31;;;;;;;;;3.00;3.00;;;;;;;;6302845;22;45284;-71
2021/08/27 14:28:56;;;;;;;;;3.00;1.00;;;;;;;;6301866;22;45390;-70
2021/08/27 14:31:25;;;;;;;;;1.67;1.67;;;;;;;;6300993;22;46149;-70
2021/08/27 14:33:55;;;;;;;;;5.00;5.00;;;;;;;;6302035;22;45312;-71
2021/08/27 14:36:20;;;;;;;;;4.67;1.67;;;;;;;;6302137;22;45213;-68